createdAt,value
2023-04-10T00:00:10.411Z,19.33
2023-04-10T00:02:38.226Z,19.33
2023-04-10T00:05:05.181Z,19.32
2023-04-10T00:07:31.749Z,19.32
2023-04-10T00:09:58.125Z,19.30
2023-04-10T00:12:25.212Z,19.29
2023-04-10T00:14:51.671Z,19.29
2023-04-10T00:17:18.051Z,19.27
2023-04-10T00:19:44.431Z,19.27
2023-04-10T00:22:10.765Z,19.26
2023-04-10T00:24:37.152Z,19.26
2023-04-10T00:27:03.691Z,19.24
2023-04-10T00:29:30.339Z,19.23
2023-04-10T00:31:56.713Z,19.21
2023-04-10T00:34:24.079Z,19.22
2023-04-10T00:36:50.528Z,19.22
2023-04-10T00:39:16.927Z,19.20
2023-04-10T00:41:43.372Z,19.20
2023-04-10T00:44:09.798Z,19.19
2023-04-10T00:46:37.658Z,19.18
2023-04-10T00:49:04.358Z,19.19
2023-04-10T00:51:31.365Z,19.18
2023-04-10T00:54:00.239Z,19.17
2023-04-10T00:56:26.696Z,19.19
2023-04-10T00:58:53.064Z,19.19
2023-04-10T01:01:19.513Z,19.22
2023-04-10T01:03:46.236Z,19.24
2023-04-10T01:06:19.331Z,19.24
2023-04-10T01:08:51.957Z,19.23
2023-04-10T01:11:37.561Z,19.24
2023-04-10T01:14:07.262Z,19.22
2023-04-10T01:16:36.296Z,19.20
2023-04-10T01:19:09.360Z,19.21
2023-04-10T01:21:36.643Z,19.20
2023-04-10T01:24:21.751Z,19.20
2023-04-10T01:27:20.691Z,19.19
2023-04-10T01:29:52.277Z,19.18
2023-04-10T01:32:20.707Z,19.17
2023-04-10T01:34:49.560Z,19.16
2023-04-10T01:37:17.006Z,19.17
2023-04-10T01:39:43.998Z,19.16
2023-04-10T01:42:11.923Z,19.16
2023-04-10T01:44:41.204Z,19.15
2023-04-10T01:47:08.002Z,19.15
2023-04-10T01:49:35.353Z,19.14
2023-04-10T01:52:02.134Z,19.14
2023-04-10T01:54:28.727Z,19.14
2023-04-10T01:56:56.811Z,19.13
2023-04-10T01:59:23.296Z,19.14
2023-04-10T02:01:49.783Z,19.13
2023-04-10T02:04:16.345Z,19.12
2023-04-10T02:06:55.744Z,19.13
2023-04-10T02:09:25.786Z,19.15
2023-04-10T02:11:56.060Z,19.15
2023-04-10T02:14:23.174Z,19.15
2023-04-10T02:16:52.887Z,19.14
2023-04-10T02:19:19.738Z,19.14
2023-04-10T02:21:47.180Z,19.15
2023-04-10T02:24:13.701Z,19.14
2023-04-10T02:26:53.138Z,19.13
2023-04-10T02:29:19.843Z,19.12
2023-04-10T02:31:46.897Z,19.12
2023-04-10T02:34:13.326Z,19.10
2023-04-10T02:36:41.953Z,19.08
2023-04-10T02:39:08.685Z,19.09
2023-04-10T02:41:35.088Z,19.08
2023-04-10T02:44:01.738Z,19.07
2023-04-10T02:46:28.180Z,19.09
2023-04-10T02:48:55.281Z,19.09
2023-04-10T02:51:21.659Z,19.08
2023-04-10T02:53:48.527Z,19.10
2023-04-10T02:56:14.955Z,19.09
2023-04-10T02:58:45.522Z,19.09
2023-04-10T03:01:12.000Z,19.09
2023-04-10T03:03:38.411Z,19.09
2023-04-10T03:06:06.894Z,19.06
2023-04-10T03:08:34.384Z,19.06
2023-04-10T03:11:00.761Z,19.05
2023-04-10T03:13:27.192Z,19.04
2023-04-10T03:15:53.681Z,19.03
2023-04-10T03:18:20.146Z,19.03
2023-04-10T03:20:47.155Z,19.04
2023-04-10T03:23:13.592Z,19.03
2023-04-10T03:25:39.950Z,19.02
2023-04-10T03:28:06.344Z,19.01
2023-04-10T03:30:33.220Z,18.99
2023-04-10T03:32:59.536Z,18.99
2023-04-10T03:35:25.915Z,18.98
2023-04-10T03:37:52.267Z,18.97
2023-04-10T03:40:18.687Z,18.97
2023-04-10T03:42:45.643Z,18.96
2023-04-10T03:45:12.392Z,18.96
2023-04-10T03:47:38.764Z,18.95
2023-04-10T03:50:05.475Z,18.95
2023-04-10T03:52:31.855Z,18.93
2023-04-10T03:54:58.259Z,18.94
2023-04-10T03:57:24.708Z,18.94
2023-04-10T03:59:51.751Z,18.91
2023-04-10T04:02:18.314Z,18.91
2023-04-10T04:04:45.238Z,18.91
2023-04-10T04:07:13.562Z,18.92
2023-04-10T04:09:41.202Z,18.93
2023-04-10T04:12:07.976Z,18.92
2023-04-10T04:14:34.356Z,18.89
2023-04-10T04:17:00.842Z,18.88
2023-04-10T04:19:27.275Z,18.85
2023-04-10T04:21:53.653Z,18.85
2023-04-10T04:24:19.999Z,18.82
2023-04-10T04:26:46.592Z,18.79
2023-04-10T04:29:13.017Z,18.79
2023-04-10T04:31:39.368Z,18.78
2023-04-10T04:34:05.757Z,18.78
2023-04-10T04:36:32.190Z,18.77
2023-04-10T04:38:58.584Z,18.76
2023-04-10T04:41:25.022Z,18.77
2023-04-10T04:43:53.537Z,18.78
2023-04-10T04:46:20.390Z,18.78
2023-04-10T04:48:46.829Z,18.77
2023-04-10T04:51:13.147Z,18.76
2023-04-10T04:53:39.481Z,18.76
2023-04-10T04:56:06.115Z,18.74
2023-04-10T04:58:32.557Z,18.74
2023-04-10T05:00:59.204Z,18.74
2023-04-10T05:03:25.711Z,18.72
2023-04-10T05:05:52.278Z,18.73
2023-04-10T05:08:18.616Z,18.72
2023-04-10T05:10:45.037Z,18.72
2023-04-10T05:13:11.497Z,18.71
2023-04-10T05:15:38.020Z,18.71
2023-04-10T05:18:04.581Z,18.73
2023-04-10T05:20:31.410Z,18.76
2023-04-10T05:22:58.268Z,18.78
2023-04-10T05:25:24.652Z,18.78
2023-04-10T05:27:50.972Z,18.80
2023-04-10T05:30:17.405Z,18.79
2023-04-10T05:32:43.970Z,18.80
2023-04-10T05:35:10.354Z,18.79
2023-04-10T05:37:36.744Z,18.79
2023-04-10T05:40:03.548Z,18.80
2023-04-10T05:42:30.391Z,18.84
2023-04-10T05:44:56.749Z,18.87
2023-04-10T05:47:23.350Z,18.90
2023-04-10T05:49:49.695Z,18.92
2023-04-10T05:52:16.095Z,18.97
2023-04-10T05:54:42.543Z,18.99
2023-04-10T05:57:08.874Z,19.00
2023-04-10T05:59:35.205Z,19.00
2023-04-10T06:02:02.047Z,19.01
2023-04-10T06:04:28.680Z,19.03
2023-04-10T06:06:55.343Z,19.04
2023-04-10T06:09:21.660Z,19.06
2023-04-10T06:11:48.000Z,19.12
2023-04-10T06:14:14.312Z,19.16
2023-04-10T06:16:41.085Z,19.21
2023-04-10T06:19:07.449Z,19.24
2023-04-10T06:21:33.787Z,19.27
2023-04-10T06:24:00.395Z,19.29
2023-04-10T06:26:26.820Z,19.32
2023-04-10T06:28:53.437Z,19.31
2023-04-10T06:31:23.585Z,19.30
2023-04-10T06:33:50.559Z,19.31
2023-04-10T06:36:17.310Z,19.31
2023-04-10T06:38:43.824Z,19.31
2023-04-10T06:41:10.486Z,19.33
2023-04-10T06:43:38.007Z,19.33
2023-04-10T06:46:05.127Z,19.34
2023-04-10T06:48:31.839Z,19.35
2023-04-10T06:51:00.464Z,19.38
2023-04-10T06:53:28.374Z,19.38
2023-04-10T06:55:54.839Z,19.38
2023-04-10T06:58:21.290Z,19.40
2023-04-10T07:00:47.699Z,19.40
2023-04-10T07:03:14.187Z,19.44
2023-04-10T07:05:42.061Z,19.46
2023-04-10T07:08:08.955Z,19.50
2023-04-10T07:10:36.015Z,19.54
2023-04-10T07:13:02.384Z,19.57
2023-04-10T07:15:28.709Z,19.62
2023-04-10T07:17:56.344Z,19.67
2023-04-10T07:20:22.808Z,19.70
2023-04-10T07:22:49.204Z,19.72
2023-04-10T07:25:15.751Z,19.75
2023-04-10T07:27:42.290Z,19.78
2023-04-10T07:30:08.884Z,19.80
2023-04-10T07:32:35.453Z,19.83
2023-04-10T07:35:01.945Z,19.85
2023-04-10T07:37:28.338Z,19.86
2023-04-10T07:39:54.800Z,19.88
2023-04-10T07:42:21.170Z,19.90
2023-04-10T07:44:47.572Z,19.93
2023-04-10T07:47:14.144Z,19.95
2023-04-10T07:49:41.239Z,19.96
2023-04-10T07:52:07.644Z,19.99
2023-04-10T07:54:34.382Z,20.01
2023-04-10T07:57:01.164Z,20.03
2023-04-10T07:59:28.541Z,20.07
2023-04-10T08:01:55.536Z,20.11
2023-04-10T08:04:22.320Z,20.13
2023-04-10T08:06:49.972Z,20.13
2023-04-10T08:09:16.449Z,20.14
2023-04-10T08:11:42.798Z,20.16
2023-04-10T08:14:09.247Z,20.19
2023-04-10T08:16:36.228Z,20.19
2023-04-10T08:19:02.896Z,20.20
2023-04-10T08:21:30.402Z,20.23
2023-04-10T08:23:58.245Z,20.23
2023-04-10T08:26:26.151Z,20.25
2023-04-10T08:28:53.666Z,20.26
2023-04-10T08:31:21.268Z,20.28
2023-04-10T08:33:48.364Z,20.31
2023-04-10T08:36:20.181Z,20.31
2023-04-10T08:38:47.399Z,20.32
2023-04-10T08:41:17.523Z,20.34
2023-04-10T08:43:45.718Z,20.37
2023-04-10T08:46:13.079Z,20.39
2023-04-10T08:48:45.683Z,20.40
2023-04-10T08:51:19.522Z,20.42
2023-04-10T08:53:48.407Z,20.43
2023-04-10T08:56:16.184Z,20.44
2023-04-10T08:58:42.994Z,20.45
2023-04-10T09:01:11.740Z,20.47
2023-04-10T09:03:38.488Z,20.49
2023-04-10T09:06:05.598Z,20.51
2023-04-10T09:08:32.239Z,20.51
2023-04-10T09:10:58.676Z,20.53
2023-04-10T09:13:35.647Z,20.57
2023-04-10T09:16:02.809Z,20.60
2023-04-10T09:18:42.638Z,20.59
2023-04-10T09:21:10.932Z,20.56
2023-04-10T09:23:37.573Z,20.58
2023-04-10T09:26:25.921Z,20.58
2023-04-10T09:29:01.644Z,20.58
2023-04-10T09:31:30.398Z,20.60
2023-04-10T09:34:12.116Z,20.63
2023-04-10T09:36:38.794Z,20.68
2023-04-10T09:39:05.988Z,20.70
2023-04-10T09:41:32.545Z,20.71
2023-04-10T09:44:06.039Z,20.75
2023-04-10T09:46:32.449Z,20.76
2023-04-10T09:49:01.395Z,20.80
2023-04-10T09:51:28.646Z,20.82
2023-04-10T09:53:55.201Z,20.84
2023-04-10T09:56:22.693Z,20.85
2023-04-10T09:58:49.464Z,20.85
2023-04-10T10:01:16.118Z,20.86
2023-04-10T10:03:43.671Z,20.87
2023-04-10T10:06:11.711Z,20.88
2023-04-10T10:08:38.075Z,20.89
2023-04-10T10:11:06.768Z,20.93
2023-04-10T10:13:41.560Z,20.94
2023-04-10T10:16:17.225Z,20.95
2023-04-10T10:19:06.654Z,20.97
2023-04-10T10:21:34.322Z,20.97
2023-04-10T10:24:01.621Z,20.99
2023-04-10T10:26:29.187Z,21.00
2023-04-10T10:28:56.799Z,21.00
2023-04-10T10:31:24.474Z,20.99
2023-04-10T10:33:54.043Z,21.01
2023-04-10T10:36:20.688Z,21.02
2023-04-10T10:39:13.981Z,21.03
2023-04-10T10:41:51.133Z,21.05
2023-04-10T10:44:28.822Z,21.04
2023-04-10T10:47:04.294Z,21.05
2023-04-10T10:49:49.505Z,21.05
2023-04-10T10:52:16.009Z,21.05
2023-04-10T10:54:50.005Z,21.05
2023-04-10T10:57:44.039Z,21.04
2023-04-10T11:00:10.846Z,21.06
2023-04-10T11:02:37.354Z,21.06
2023-04-10T11:05:03.967Z,21.07
2023-04-10T11:08:02.959Z,21.11
2023-04-10T11:10:47.973Z,21.15
2023-04-10T11:13:18.138Z,21.15
2023-04-10T11:15:44.856Z,21.15
2023-04-10T11:18:12.153Z,21.17
2023-04-10T11:20:57.418Z,21.17
2023-04-10T11:23:24.138Z,21.18
2023-04-10T11:25:51.961Z,21.18
2023-04-10T11:28:47.707Z,21.19
2023-04-10T11:31:15.088Z,21.20
2023-04-10T11:33:41.623Z,21.20
2023-04-10T11:36:08.072Z,21.20
2023-04-10T11:38:34.428Z,21.20
2023-04-10T11:41:02.681Z,21.19
2023-04-10T11:43:29.317Z,21.20
2023-04-10T11:46:00.008Z,21.20
2023-04-10T11:48:27.256Z,21.20
2023-04-10T11:50:53.676Z,21.18
2023-04-10T11:53:21.552Z,21.18
2023-04-10T11:55:48.057Z,21.20
2023-04-10T11:58:23.593Z,21.22
2023-04-10T12:01:16.090Z,21.24
2023-04-10T12:03:43.227Z,21.28
2023-04-10T12:06:13.460Z,21.30
2023-04-10T12:08:46.031Z,21.34
2023-04-10T12:11:13.137Z,21.37
2023-04-10T12:13:39.991Z,21.39
2023-04-10T12:16:08.095Z,21.43
2023-04-10T12:18:34.711Z,21.44
2023-04-10T12:21:01.687Z,21.45
2023-04-10T12:23:28.743Z,21.46
2023-04-10T12:26:06.673Z,21.43
2023-04-10T12:28:33.160Z,21.47
2023-04-10T12:30:59.662Z,21.49
2023-04-10T12:33:26.635Z,21.48
2023-04-10T12:35:54.351Z,21.44
2023-04-10T12:38:36.407Z,21.46
2023-04-10T12:41:03.528Z,21.49
2023-04-10T12:43:33.851Z,21.47
2023-04-10T12:46:00.334Z,21.44
2023-04-10T12:48:26.886Z,21.40
2023-04-10T12:50:53.277Z,21.40
2023-04-10T12:53:19.618Z,21.40
2023-04-10T12:56:06.406Z,21.41
2023-04-10T12:58:33.091Z,21.35
2023-04-10T13:01:03.520Z,21.36
2023-04-10T13:03:30.211Z,21.34
2023-04-10T13:05:56.660Z,21.31
2023-04-10T13:08:23.236Z,21.30
2023-04-10T13:10:49.659Z,21.31
2023-04-10T13:13:16.119Z,21.28
2023-04-10T13:15:42.882Z,21.26
2023-04-10T13:18:10.508Z,21.22
2023-04-10T13:20:38.048Z,21.24
2023-04-10T13:23:04.510Z,21.24
2023-04-10T13:25:34.708Z,21.21
2023-04-10T13:28:01.747Z,21.17
2023-04-10T13:30:29.006Z,21.16
2023-04-10T13:32:57.266Z,21.16
2023-04-10T13:35:23.810Z,21.15
2023-04-10T13:37:53.119Z,21.15
2023-04-10T13:40:20.440Z,21.11
2023-04-10T13:42:47.771Z,21.08
2023-04-10T13:45:15.004Z,21.03
2023-04-10T13:47:41.677Z,21.00
2023-04-10T13:50:08.389Z,21.02
2023-04-10T13:52:34.800Z,21.07
2023-04-10T13:55:01.201Z,21.08
2023-04-10T13:57:27.755Z,21.07
2023-04-10T13:59:54.265Z,21.02
2023-04-10T14:02:20.764Z,21.00
2023-04-10T14:04:47.528Z,21.00
2023-04-10T14:07:13.921Z,20.98
2023-04-10T14:09:40.779Z,20.92
2023-04-10T14:12:07.266Z,20.91
2023-04-10T14:14:33.753Z,20.91
2023-04-10T14:17:00.216Z,20.89
2023-04-10T14:19:26.630Z,20.88
2023-04-10T14:21:52.966Z,20.87
2023-04-10T14:24:19.360Z,20.86
2023-04-10T14:26:45.774Z,20.85
2023-04-10T14:29:13.464Z,20.84
2023-04-10T14:31:50.687Z,20.80
2023-04-10T14:34:23.460Z,20.76
2023-04-10T14:36:49.877Z,20.72
2023-04-10T14:39:16.287Z,20.68
2023-04-10T14:41:42.726Z,20.66
2023-04-10T14:44:09.134Z,20.66
2023-04-10T14:46:35.648Z,20.66
2023-04-10T14:49:02.000Z,20.67
2023-04-10T14:51:28.820Z,20.68
2023-04-10T14:53:55.457Z,20.67
2023-04-10T14:56:22.043Z,20.66
2023-04-10T14:58:48.480Z,20.64
2023-04-10T15:01:15.337Z,20.63
2023-04-10T15:03:41.951Z,20.61
2023-04-10T15:06:08.484Z,20.63
2023-04-10T15:08:34.914Z,20.61
2023-04-10T15:11:02.051Z,20.58
2023-04-10T15:13:28.489Z,20.59
2023-04-10T15:15:55.400Z,20.59
2023-04-10T15:18:21.844Z,20.60
2023-04-10T15:20:48.408Z,20.59
2023-04-10T15:23:14.820Z,20.60
2023-04-10T15:25:41.178Z,20.61
2023-04-10T15:28:08.244Z,20.59
2023-04-10T15:30:34.673Z,20.58
2023-04-10T15:33:01.076Z,20.59
2023-04-10T15:35:28.774Z,20.59
2023-04-10T15:37:55.419Z,20.57
2023-04-10T15:40:21.846Z,20.56
2023-04-10T15:42:48.213Z,20.58
2023-04-10T15:45:16.001Z,20.59
2023-04-10T15:47:42.522Z,20.59
2023-04-10T15:50:10.686Z,20.60
2023-04-10T15:52:37.271Z,20.61
2023-04-10T15:55:03.759Z,20.59
2023-04-10T15:57:30.116Z,20.57
2023-04-10T15:59:58.920Z,20.59
2023-04-10T16:02:25.495Z,20.59
2023-04-10T16:04:52.262Z,20.58
2023-04-10T16:07:18.812Z,20.58
2023-04-10T16:09:45.240Z,20.57
2023-04-10T16:12:12.763Z,20.59
2023-04-10T16:14:39.348Z,20.62
2023-04-10T16:17:05.744Z,20.60
2023-04-10T16:19:32.203Z,20.61
2023-04-10T16:21:58.637Z,20.60
2023-04-10T16:24:25.086Z,20.58
2023-04-10T16:26:51.467Z,20.57
2023-04-10T16:29:19.839Z,20.55
2023-04-10T16:31:46.421Z,20.54
2023-04-10T16:34:12.987Z,20.56
2023-04-10T16:36:39.407Z,20.59
2023-04-10T16:39:07.360Z,20.60
2023-04-10T16:41:33.737Z,20.59
2023-04-10T16:44:00.255Z,20.56
2023-04-10T16:46:27.144Z,20.60
2023-04-10T16:48:53.878Z,20.58
2023-04-10T16:51:20.544Z,20.60
2023-04-10T16:53:46.898Z,20.60
2023-04-10T16:56:13.380Z,20.61
2023-04-10T16:58:41.893Z,20.61
2023-04-10T17:01:18.697Z,20.63
2023-04-10T17:03:46.119Z,20.66
2023-04-10T17:06:12.758Z,20.70
2023-04-10T17:08:39.189Z,20.69
2023-04-10T17:11:06.112Z,20.69
2023-04-10T17:13:33.005Z,20.69
2023-04-10T17:15:59.452Z,20.68
2023-04-10T17:18:27.155Z,20.69
2023-04-10T17:20:53.541Z,20.69
2023-04-10T17:23:19.913Z,20.69
2023-04-10T17:25:46.296Z,20.71
2023-04-10T17:28:12.626Z,20.71
2023-04-10T17:30:39.138Z,20.70
2023-04-10T17:33:05.586Z,20.68
2023-04-10T17:35:32.072Z,20.66
2023-04-10T17:37:58.451Z,20.66
2023-04-10T17:40:25.140Z,20.66
2023-04-10T17:42:51.538Z,20.65
2023-04-10T17:45:18.205Z,20.66
2023-04-10T17:47:44.743Z,20.65
2023-04-10T17:50:11.272Z,20.66
2023-04-10T17:52:37.813Z,20.63
2023-04-10T17:55:04.359Z,20.63
2023-04-10T17:57:30.752Z,20.63
2023-04-10T17:59:57.167Z,20.61
2023-04-10T18:02:23.561Z,20.60
2023-04-10T18:04:49.974Z,20.62
2023-04-10T18:07:16.410Z,20.63
2023-04-10T18:09:42.857Z,20.62
2023-04-10T18:12:09.280Z,20.60
2023-04-10T18:14:37.084Z,20.57
2023-04-10T18:17:03.662Z,20.57
2023-04-10T18:19:30.901Z,20.56
2023-04-10T18:21:57.300Z,20.56
2023-04-10T18:24:23.704Z,20.56
2023-04-10T18:26:50.149Z,20.54
2023-04-10T18:29:16.631Z,20.53
2023-04-10T18:31:43.078Z,20.53
2023-04-10T18:34:09.617Z,20.52
2023-04-10T18:36:36.397Z,20.51
2023-04-10T18:39:03.023Z,20.49
2023-04-10T18:41:29.397Z,20.49
2023-04-10T18:44:04.278Z,20.50
2023-04-10T18:46:32.526Z,20.51
2023-04-10T18:48:59.274Z,20.52
2023-04-10T18:51:26.437Z,20.52
2023-04-10T18:53:53.057Z,20.52
2023-04-10T18:56:19.635Z,20.52
2023-04-10T18:58:48.313Z,20.53
2023-04-10T19:01:17.741Z,20.50
2023-04-10T19:03:47.343Z,20.50
2023-04-10T19:06:17.320Z,20.49
2023-04-10T19:08:43.729Z,20.48
2023-04-10T19:11:10.315Z,20.48
2023-04-10T19:13:36.743Z,20.47
2023-04-10T19:16:03.747Z,20.49
2023-04-10T19:18:31.014Z,20.47
2023-04-10T19:20:57.612Z,20.49
2023-04-10T19:23:26.047Z,20.50
2023-04-10T19:25:53.390Z,20.50
2023-04-10T19:28:19.938Z,20.51
2023-04-10T19:30:46.384Z,20.49
2023-04-10T19:33:12.770Z,20.47
2023-04-10T19:35:39.215Z,20.46
2023-04-10T19:38:05.555Z,20.49
2023-04-10T19:40:32.166Z,20.49
2023-04-10T19:43:01.980Z,20.47
2023-04-10T19:45:29.432Z,20.47
2023-04-10T19:47:56.534Z,20.49
2023-04-10T19:50:23.050Z,20.46
2023-04-10T19:52:49.566Z,20.48
2023-04-10T19:55:17.588Z,20.48
2023-04-10T19:57:45.374Z,20.47
2023-04-10T20:00:12.586Z,20.50
2023-04-10T20:02:39.343Z,20.49
2023-04-10T20:05:06.104Z,20.49
2023-04-10T20:07:32.574Z,20.49
2023-04-10T20:10:02.556Z,20.48
2023-04-10T20:12:30.110Z,20.47
2023-04-10T20:14:56.593Z,20.46
2023-04-10T20:17:22.977Z,20.47
2023-04-10T20:19:49.330Z,20.48
2023-04-10T20:22:15.746Z,20.44
2023-04-10T20:24:42.075Z,20.43
2023-04-10T20:27:08.446Z,20.44
2023-04-10T20:29:34.893Z,20.43
2023-04-10T20:32:01.340Z,20.40
2023-04-10T20:34:27.735Z,20.37
2023-04-10T20:36:54.208Z,20.39
2023-04-10T20:39:20.860Z,20.38
2023-04-10T20:41:47.257Z,20.36
2023-04-10T20:44:13.650Z,20.36
2023-04-10T20:46:40.267Z,20.36
2023-04-10T20:49:06.861Z,20.36
2023-04-10T20:51:37.055Z,20.35
2023-04-10T20:54:04.477Z,20.39
2023-04-10T20:56:40.674Z,20.39
2023-04-10T20:59:10.037Z,20.37
2023-04-10T21:01:36.509Z,20.37
2023-04-10T21:04:03.038Z,20.38
2023-04-10T21:06:29.783Z,20.39
2023-04-10T21:08:56.330Z,20.35
2023-04-10T21:11:22.767Z,20.35
2023-04-10T21:13:49.283Z,20.33
2023-04-10T21:16:15.999Z,20.32
2023-04-10T21:18:42.452Z,20.31
2023-04-10T21:21:09.088Z,20.31
2023-04-10T21:23:35.451Z,20.31
2023-04-10T21:26:02.154Z,20.32
2023-04-10T21:28:28.593Z,20.31
2023-04-10T21:30:54.912Z,20.32
2023-04-10T21:33:21.230Z,20.33
2023-04-10T21:35:47.636Z,20.32
2023-04-10T21:38:14.450Z,20.31
2023-04-10T21:40:40.911Z,20.32
2023-04-10T21:43:07.398Z,20.32
2023-04-10T21:45:37.488Z,20.32
2023-04-10T21:48:04.077Z,20.30
2023-04-10T21:50:30.952Z,20.28
2023-04-10T21:52:57.438Z,20.28
2023-04-10T21:55:23.892Z,20.28
2023-04-10T21:57:50.312Z,20.29
2023-04-10T22:00:17.134Z,20.29
2023-04-10T22:02:44.062Z,20.29
2023-04-10T22:05:12.419Z,20.30
2023-04-10T22:07:38.736Z,20.29
2023-04-10T22:10:05.382Z,20.28
2023-04-10T22:12:31.902Z,20.28
2023-04-10T22:14:58.232Z,20.28
2023-04-10T22:17:24.676Z,20.26
2023-04-10T22:19:51.061Z,20.26
2023-04-10T22:22:18.421Z,20.26
2023-04-10T22:24:46.225Z,20.27
2023-04-10T22:27:12.560Z,20.27
2023-04-10T22:29:39.669Z,20.24
2023-04-10T22:32:06.169Z,20.22
2023-04-10T22:34:32.537Z,20.22
2023-04-10T22:36:58.973Z,20.22
2023-04-10T22:39:25.678Z,20.22
2023-04-10T22:41:52.386Z,20.21
2023-04-10T22:44:18.715Z,20.20
2023-04-10T22:46:48.084Z,20.21
2023-04-10T22:49:17.232Z,20.21
2023-04-10T22:51:45.914Z,20.22
2023-04-10T22:54:12.516Z,20.21
2023-04-10T22:56:39.378Z,20.22
2023-04-10T22:59:05.808Z,20.27
2023-04-10T23:01:32.301Z,20.28
2023-04-10T23:03:58.705Z,20.33
2023-04-10T23:06:25.667Z,20.33
2023-04-10T23:08:51.999Z,20.34
2023-04-10T23:11:18.420Z,20.36
2023-04-10T23:13:44.796Z,20.38
2023-04-10T23:16:11.607Z,20.36
2023-04-10T23:18:39.400Z,20.38
2023-04-10T23:21:07.067Z,20.38
2023-04-10T23:23:33.794Z,20.35
2023-04-10T23:26:00.318Z,20.33
2023-04-10T23:28:27.302Z,20.32
2023-04-10T23:30:53.694Z,20.33
2023-04-10T23:33:20.102Z,20.30
2023-04-10T23:35:46.568Z,20.32
2023-04-10T23:38:12.955Z,20.32
2023-04-10T23:40:39.387Z,20.35
2023-04-10T23:43:05.916Z,20.37
2023-04-10T23:45:32.405Z,20.37
2023-04-10T23:47:58.976Z,20.34
2023-04-10T23:50:25.399Z,20.30
2023-04-10T23:52:51.998Z,20.28
2023-04-10T23:55:18.766Z,20.30
2023-04-10T23:57:45.245Z,20.31
